createdAt,value
2022-11-19T00:00:15.534Z,1016.7216483578748
2022-11-19T00:10:53.205Z,1016.8048004369093
2022-11-19T00:17:32.084Z,1016.8790099177138
2022-11-19T00:32:15.494Z,1016.9567823637274
2022-11-19T00:38:54.252Z,1017.0063243248479
2022-11-19T00:45:34.021Z,1017.0375727062855
2022-11-19T00:52:15.777Z,1017.0781701126886
2022-11-19T00:58:55.655Z,1017.1437151400745
2022-11-19T01:05:35.721Z,1017.2579767522318
2022-11-19T01:12:32.094Z,1017.2686378141975
2022-11-19T01:19:14.019Z,1017.3132391205211
2022-11-19T01:25:56.824Z,1017.3267995496434
2022-11-19T01:32:38.548Z,1017.3936521535728
2022-11-19T01:39:23.743Z,1017.416634255141
2022-11-19T01:46:02.353Z,1017.3977742832101
2022-11-19T01:52:43.652Z,1017.4335601320121
2022-11-19T02:04:07.970Z,1017.487943466867
2022-11-19T02:10:59.597Z,1017.6062889979779
2022-11-19T02:17:39.785Z,1017.6671319220014
2022-11-19T02:37:51.640Z,1017.7890815067749
2022-11-19T02:44:32.423Z,1017.8259948498794
2022-11-19T02:51:12.616Z,1017.8446579281464
2022-11-19T03:03:34.794Z,1017.8853381970193
2022-11-19T03:35:35.996Z,1018.0537282621323
2022-11-19T03:42:16.637Z,1018.1181210045437
2022-11-19T03:48:57.227Z,1018.1291946552818
2022-11-19T03:55:37.973Z,1018.1800434203374
2022-11-19T04:02:19.133Z,1018.2263477242028
2022-11-19T04:09:11.637Z,1018.3652793937075
2022-11-19T04:15:53.667Z,1018.4101966058602
2022-11-19T04:24:42.024Z,1018.3542977110715
2022-11-19T04:31:23.934Z,1018.3580552105819
2022-11-19T04:39:40.788Z,1018.3926772415045
2022-11-19T04:56:41.390Z,1018.3358731846081
2022-11-19T05:03:21.644Z,1018.3338480409942
2022-11-19T05:14:13.185Z,1018.4095677130114
2022-11-19T05:20:57.852Z,1018.4593111824696
2022-11-19T05:27:41.105Z,1018.4733475539666
2022-11-19T05:35:27.624Z,1018.5082436804518
2022-11-19T05:48:20.407Z,1018.5737607111367
2022-11-19T05:55:04.691Z,1018.595431380972
2022-11-19T06:01:47.844Z,1018.5960704236808
2022-11-19T06:08:31.706Z,1018.6014139954214
2022-11-19T06:15:30.836Z,1018.5958927937077
2022-11-19T06:22:12.602Z,1018.6491505485593
2022-11-19T06:33:59.662Z,1018.7476449366891
2022-11-19T06:40:47.054Z,1018.7716154161764
2022-11-19T06:47:28.146Z,1018.799622991037
2022-11-19T06:54:10.158Z,1018.8255889890112
2022-11-19T07:00:53.542Z,1018.8788713970573
2022-11-19T07:07:37.731Z,1018.888643037879
2022-11-19T07:14:33.905Z,1018.9837940153
2022-11-19T07:21:49.453Z,1018.9964710264247
2022-11-19T07:33:24.927Z,1019.0757853931459
2022-11-19T07:44:54.801Z,1019.0659919082714
2022-11-19T07:52:23.880Z,1019.0633104475432
2022-11-19T08:12:06.972Z,1019.1465813691789
2022-11-19T08:23:10.677Z,1019.2717608855846
2022-11-19T08:31:39.734Z,1019.3315288520299
2022-11-19T08:44:49.148Z,1019.2505584993999
2022-11-19T08:51:30.657Z,1019.2656615239133
2022-11-19T09:08:59.343Z,1019.1814855965036
2022-11-19T09:22:16.685Z,1019.1953435851386
2022-11-19T09:28:43.758Z,1019.223244247388
2022-11-19T09:35:10.826Z,1019.2123843744307
2022-11-19T09:41:38.377Z,1019.2304716284782
2022-11-19T09:53:39.602Z,1019.2185174883382
2022-11-19T10:10:53.660Z,1019.2695615016139
2022-11-19T10:17:21.404Z,1019.2522798537196
2022-11-19T10:25:15.826Z,1019.1305543518852
2022-11-19T10:31:44.277Z,1019.0759442856233
2022-11-19T10:45:02.543Z,1019.009520078454
2022-11-19T10:55:09.577Z,1018.8648888128517
2022-11-19T11:01:36.679Z,1018.7693449238396
2022-11-19T11:13:56.856Z,1018.6246524968363
2022-11-19T11:20:29.304Z,1018.5520228047707
2022-11-19T11:27:01.612Z,1018.5122677324126
2022-11-19T11:33:29.121Z,1018.4458764358501
2022-11-19T11:40:31.944Z,1018.3822117421533
2022-11-19T11:49:12.640Z,1018.3506397790346
2022-11-19T11:56:01.651Z,1018.340192256309
2022-11-19T12:02:29.625Z,1018.323862710664
2022-11-19T12:15:10.035Z,1018.250566474654
2022-11-19T12:21:39.848Z,1018.2201728183113
2022-11-19T12:35:23.459Z,1018.1283169683384
2022-11-19T12:44:25.138Z,1018.1407818010584
2022-11-19T12:52:21.390Z,1018.0980454609355
2022-11-19T12:58:51.778Z,1018.033631312399
2022-11-19T13:05:21.741Z,1017.9749340260605
2022-11-19T13:11:51.562Z,1017.9249041956667
2022-11-19T13:24:25.011Z,1017.8414422285135
2022-11-19T13:30:53.486Z,1017.8879672307548
2022-11-19T13:37:22.917Z,1017.8628762682787
2022-11-19T13:43:52.935Z,1017.7950876445407
2022-11-19T13:50:23.064Z,1017.7316552278033
2022-11-19T14:13:34.676Z,1017.7150097852207
2022-11-19T14:25:40.960Z,1017.6293328108798
2022-11-19T14:32:09.872Z,1017.5521866081132
2022-11-19T14:38:39.270Z,1017.5229556406425
2022-11-19T14:45:08.392Z,1017.5553507958523
2022-11-19T14:51:38.006Z,1017.5573995127818
2022-11-19T14:58:07.029Z,1017.43884655779
2022-11-19T15:07:17.145Z,1017.3327637992363
2022-11-19T15:18:51.687Z,1017.3833603109233
2022-11-19T15:25:21.198Z,1017.3846234397483
2022-11-19T15:36:35.321Z,1017.3273558749679
2022-11-19T15:43:04.599Z,1017.2833170031491
2022-11-19T15:50:45.730Z,1017.2589183129013
2022-11-19T15:57:15.116Z,1017.1907165649878
2022-11-19T16:03:45.203Z,1017.1308536103286
2022-11-19T16:12:59.837Z,1017.0869755877358
2022-11-19T16:19:40.026Z,1017.1189429268547
2022-11-19T16:26:09.986Z,1017.1127835303688
2022-11-19T16:34:25.731Z,1017.079493763885
2022-11-19T16:40:56.053Z,1016.9755022402142
2022-11-19T16:47:25.707Z,1016.9469213159342
2022-11-19T16:53:55.658Z,1016.9732049013684
2022-11-19T17:00:25.708Z,1016.9680301647259
2022-11-19T17:06:55.731Z,1016.9227382168349
2022-11-19T17:20:30.888Z,1016.9348861682992
2022-11-19T17:27:00.351Z,1016.9007737336854
2022-11-19T17:46:25.701Z,1016.8644368637289
2022-11-19T17:52:54.330Z,1016.9580884281955
2022-11-19T18:02:05.961Z,1017.0279627017414
2022-11-19T18:08:35.663Z,1017.0613793929732
2022-11-19T18:17:57.692Z,1017.135846438338
2022-11-19T18:24:27.061Z,1017.204539662718
2022-11-19T18:31:00.841Z,1017.1434572842672
2022-11-19T18:46:56.790Z,1017.0906288692394
2022-11-19T18:53:26.528Z,1017.1231803877441
2022-11-19T18:59:56.385Z,1017.0692752481257
2022-11-19T19:06:25.696Z,1017.0191134281829
2022-11-19T19:13:06.776Z,1017.0501771386625
2022-11-19T19:22:55.273Z,1017.0780123445353
2022-11-19T19:29:24.956Z,1017.0009458894202
2022-11-19T19:35:54.717Z,1016.9499325751591
2022-11-19T19:44:23.047Z,1016.9950080636764
2022-11-19T19:57:24.265Z,1016.9125373129773
2022-11-19T20:10:18.046Z,1016.8338681614335
2022-11-19T20:16:50.221Z,1016.8048438230404
2022-11-19T20:23:21.770Z,1016.7870530529356
2022-11-19T20:29:55.605Z,1016.756409695284
2022-11-19T20:36:26.999Z,1016.7519834138873
2022-11-19T20:42:58.213Z,1016.6972973187527
2022-11-19T20:50:47.771Z,1016.7062813210255
2022-11-19T20:57:21.963Z,1016.6521219553018
2022-11-19T21:07:40.922Z,1016.5888535773489
2022-11-19T21:16:47.531Z,1016.5407302702226
2022-11-19T21:23:16.346Z,1016.4645243926102
2022-11-19T21:29:49.207Z,1016.4496513776609
2022-11-19T21:37:59.597Z,1016.4463736696645
2022-11-19T21:44:37.614Z,1016.4200121970255
2022-11-19T21:51:13.970Z,1016.3919605797935
2022-11-19T21:57:47.933Z,1016.3894479177467
2022-11-19T22:04:19.233Z,1016.3934437718902
2022-11-19T22:15:02.113Z,1016.2877321310157
2022-11-19T22:24:53.200Z,1016.2880592227499
2022-11-19T22:34:21.859Z,1016.1857113997228
2022-11-19T22:40:55.430Z,1016.1416826363368
2022-11-19T22:47:24.721Z,1016.1421995041853
2022-11-19T22:53:56.312Z,1016.1850075502429
2022-11-19T23:00:28.723Z,1016.1383575180736
2022-11-19T23:11:46.702Z,1016.1147068367779
2022-11-19T23:24:55.843Z,1016.057195971859
2022-11-19T23:31:24.574Z,1015.9943741037075
2022-11-19T23:37:54.111Z,1015.9650378470701
